Time;durP1;ratioP1;P1;durP2;ratioP2;P2;SDS_P1;SDS_P2;PMS_P1;PMS_P2;Temp;Humidity;BMP_temperature;BMP_pressure;BME280_temperature;BME280_humidity;BME280_pressure;Samples;Min_cycle;Max_cycle;Signal;HPM_P1;HPM_P2
2021/12/23 00:00:53;;;;;;;83.10;35.90;;;;;;;;;;4880004;29;20178;-82
2021/12/23 00:03:19;;;;;;;85.53;35.30;;;;;;;;;;4880321;29;20189;-82
2021/12/23 00:05:45;;;;;;;86.77;35.00;;;;;;;;;;4879843;29;20223;-82
2021/12/23 00:08:11;;;;;;;82.33;34.73;;;;;;;;;;4879754;29;20196;-83
2021/12/23 00:10:37;;;;;;;86.87;36.13;;;;;;;;;;4879750;29;20700;-85
2021/12/23 00:13:03;;;;;;;88.57;36.97;;;;;;;;;;4863526;29;20616;-81
2021/12/23 00:16:00;;;;;;;87.50;36.03;;;;;;;;;;4863243;29;20218;-81
2021/12/23 00:18:29;;;;;;;89.87;36.70;;;;;;;;;;4879272;29;20249;-81
2021/12/23 00:23:44;;;;;;;85.43;34.67;;;;;;;;;;4879713;29;20554;-81
2021/12/23 00:26:10;;;;;;;88.10;37.63;;;;;;;;;;4878225;29;20671;-80
2021/12/23 00:28:36;;;;;;;92.83;38.07;;;;;;;;;;4878537;29;20660;-82
2021/12/23 00:31:02;;;;;;;88.37;36.33;;;;;;;;;;4878391;29;20196;-82
2021/12/23 00:33:29;;;;;;;89.47;38.03;;;-4.10;99.90;;;;;;4880142;29;20190;-81
2021/12/23 00:35:56;;;;;;;80.27;35.53;;;-4.10;99.90;;;;;;4878156;29;20195;-81
2021/12/23 00:38:36;;;;;;;87.73;35.90;;;-4.10;99.90;;;;;;4878213;29;20178;-82
2021/12/23 00:41:03;;;;;;;91.70;37.70;;;;;;;;;;4878802;29;20183;-82
2021/12/23 00:43:31;;;;;;;103.90;40.37;;;-4.10;99.90;;;;;;4878383;29;20197;-82
2021/12/23 00:45:57;;;;;;;103.80;38.43;;;;;;;;;;4878558;29;20558;-82
2021/12/23 00:48:23;;;;;;;94.93;39.83;;;;;;;;;;4883371;29;20191;-82
2021/12/23 00:50:50;;;;;;;89.33;37.10;;;-4.20;99.90;;;;;;4881735;29;20185;-82
2021/12/23 00:53:21;;;;;;;105.03;39.70;;;;;;;;;;4866381;29;20600;-82
2021/12/23 00:55:51;;;;;;;92.70;37.13;;;-4.10;99.90;;;;;;4881967;29;20222;-81
2021/12/23 00:58:17;;;;;;;109.07;41.27;;;;;;;;;;4883265;29;20181;-82
2021/12/23 01:00:44;;;;;;;132.43;50.43;;;-4.10;99.90;;;;;;4866293;29;20637;-82
2021/12/23 01:03:10;;;;;;;143.00;54.30;;;;;;;;;;4883261;29;20181;-82
2021/12/23 01:05:36;;;;;;;131.60;50.60;;;;;;;;;;4881640;29;20620;-82
2021/12/23 01:08:03;;;;;;;124.70;45.73;;;;;;;;;;4881534;29;20196;-82
2021/12/23 01:10:29;;;;;;;145.07;51.60;;;;;;;;;;4881821;29;20569;-82
2021/12/23 01:13:00;;;;;;;137.33;51.47;;;-4.10;99.90;;;;;;4883137;29;20286;-82
2021/12/23 01:18:00;;;;;;;114.43;42.03;;;;;;;;;;4882850;29;20690;-82
2021/12/23 01:20:30;;;;;;;97.97;39.20;;;-4.10;99.90;;;;;;4883026;29;20270;-81
2021/12/23 01:22:58;;;;;;;83.43;34.57;;;-4.10;99.90;;;;;;4881630;29;20186;-82
2021/12/23 01:25:25;;;;;;;70.03;29.53;;;;;;;;;;4882798;29;20235;-82
2021/12/23 01:27:51;;;;;;;65.37;30.37;;;;;;;;;;4882726;29;20224;-82
2021/12/23 01:30:18;;;;;;;68.67;28.47;;;-4.10;99.90;;;;;;4881571;29;20190;-81
2021/12/23 01:32:45;;;;;;;57.43;24.87;;;-4.10;99.90;;;;;;4865691;29;20197;-82
2021/12/23 01:35:11;;;;;;;62.90;25.40;;;;;;;;;;4865949;29;20190;-81
2021/12/23 01:37:38;;;;;;;52.90;23.17;;;;;;;;;;4881536;29;20187;-81
2021/12/23 01:40:04;;;;;;;62.17;26.40;;;-4.10;99.90;;;;;;4881311;29;20182;-82
2021/12/23 01:42:31;;;;;;;52.00;24.60;;;;;;;;;;4881141;29;20276;-82
2021/12/23 01:44:57;;;;;;;67.63;27.20;;;;;;;;;;4880628;29;20246;-82
2021/12/23 01:47:23;;;;;;;55.67;24.73;;;;;;;;;;4882656;29;20188;-82
2021/12/23 01:49:50;;;;;;;55.70;26.10;;;-4.20;99.90;;;;;;4880942;29;20646;-83
2021/12/23 01:52:16;;;;;;;58.87;25.53;;;;;;;;;;4882329;29;20193;-83
2021/12/23 01:54:42;;;;;;;58.37;25.17;;;;;;;;;;4882670;29;20230;-82
2021/12/23 01:57:08;;;;;;;55.07;23.77;;;-4.20;99.90;;;;;;4880795;29;20190;-82
2021/12/23 01:59:34;;;;;;;60.70;26.17;;;;;;;;;;4865742;29;20258;-82
2021/12/23 02:02:00;;;;;;;56.77;24.07;;;;;;;;;;4881946;29;20186;-83
2021/12/23 02:04:26;;;;;;;58.10;26.33;;;;;;;;;;4880913;29;20689;-82
2021/12/23 02:06:52;;;;;;;51.60;23.17;;;;;;;;;;4880700;29;20670;-83
2021/12/23 02:09:18;;;;;;;60.40;24.43;;;;;;;;;;4884693;29;20187;-82
2021/12/23 02:11:45;;;;;;;57.03;24.23;;;-4.00;99.90;;;;;;4888218;29;20197;-82
2021/12/23 02:14:13;;;;;;;59.43;22.60;;;-4.10;99.90;;;;;;4887969;29;20192;-82
2021/12/23 02:16:39;;;;;;;51.63;22.07;;;;;;;;;;4887038;29;20189;-81
2021/12/23 02:19:13;;;;;;;53.80;21.03;;;-4.10;99.90;;;;;;4885530;29;20185;-81
2021/12/23 02:21:42;;;;;;;46.43;21.10;;;-4.10;99.90;;;;;;4892535;29;20175;-81
2021/12/23 02:24:08;;;;;;;46.10;21.50;;;;;;;;;;4886361;29;20199;-81
2021/12/23 02:26:38;;;;;;;53.40;22.93;;;-4.10;99.90;;;;;;4887313;29;20224;-81
2021/12/23 02:29:04;;;;;;;54.10;24.03;;;;;;;;;;4886174;29;20190;-81
2021/12/23 02:31:30;;;;;;;60.20;25.27;;;;;;;;;;4889575;29;20187;-81
2021/12/23 02:33:57;;;;;;;57.13;26.73;;;-4.00;99.90;;;;;;4888453;29;20170;-83
2021/12/23 02:36:23;;;;;;;59.27;27.70;;;;;;;;;;4886512;29;20179;-81
2021/12/23 02:38:49;;;;;;;57.27;24.00;;;;;;;;;;4869728;29;20542;-85
2021/12/23 02:41:15;;;;;;;48.30;22.07;;;;;;;;;;4885579;29;20194;-82
2021/12/23 02:43:41;;;;;;;56.93;24.50;;;;;;;;;;4885267;29;20202;-82
2021/12/23 02:46:07;;;;;;;56.83;24.20;;;;;;;;;;4870057;29;20228;-82
2021/12/23 02:48:37;;;;;;;62.90;25.63;;;-3.90;99.90;;;;;;4885260;29;20186;-82
2021/12/23 02:51:05;;;;;;;60.13;26.57;;;-3.90;99.90;;;;;;4883076;29;20187;-82
2021/12/23 02:53:31;;;;;;;60.03;27.30;;;;;;;;;;4881327;29;20233;-82
2021/12/23 02:55:59;;;;;;;55.87;26.10;;;-3.90;99.90;;;;;;4880178;29;20192;-81
2021/12/23 02:58:25;;;;;;;57.77;23.50;;;;;;;;;;4880074;29;20257;-82
2021/12/23 03:00:53;;;;;;;52.40;25.20;;;-3.90;99.90;;;;;;4880263;29;20218;-85
2021/12/23 03:03:19;;;;;;;59.23;24.47;;;;;;;;;;4881623;29;20180;-82
2021/12/23 03:05:53;;;;;;;48.13;23.70;;;-4.00;99.90;;;;;;4881503;29;20677;-81
2021/12/23 03:08:37;;;;;;;51.67;24.20;;;-3.90;99.90;;;;;;4881061;29;20191;-82
2021/12/23 03:11:04;;;;;;;54.90;22.53;;;-4.00;99.90;;;;;;4880807;29;20186;-82
2021/12/23 03:13:30;;;;;;;47.37;22.33;;;;;;;;;;4881413;29;20182;-81
2021/12/23 03:15:57;;;;;;;50.77;23.43;;;-4.00;99.90;;;;;;4881302;29;20188;-82
2021/12/23 03:18:23;;;;;;;50.70;22.53;;;;;;;;;;4881148;29;20183;-81
2021/12/23 03:20:49;;;;;;;45.73;21.20;;;;;;;;;;4879644;29;20190;-82
2021/12/23 03:23:15;;;;;;;49.47;22.00;;;;;;;;;;4864321;29;20201;-82
2021/12/23 03:25:41;;;;;;;51.60;22.97;;;;;;;;;;4864369;29;20218;-82
2021/12/23 03:28:07;;;;;;;60.87;24.60;;;;;;;;;;4879288;29;20240;-82
2021/12/23 03:30:33;;;;;;;50.17;22.67;;;;;;;;;;4880388;29;20183;-84
2021/12/23 03:32:59;;;;;;;57.10;23.53;;;;;;;;;;4880744;29;20186;-83
2021/12/23 03:35:26;;;;;;;55.40;23.53;;;;;;;;;;4880898;29;20739;-82
2021/12/23 03:37:53;;;;;;;47.00;22.77;;;;;;;;;;4879695;29;20250;-82
2021/12/23 03:40:19;;;;;;;59.57;25.33;;;;;;;;;;4879678;29;20652;-82
2021/12/23 03:42:45;;;;;;;63.93;25.73;;;;;;;;;;4880563;29;20186;-82
2021/12/23 03:45:11;;;;;;;71.03;28.53;;;;;;;;;;4881580;29;20216;-81
2021/12/23 03:47:37;;;;;;;63.53;26.60;;;;;;;;;;4882165;29;20631;-81
2021/12/23 03:50:05;;;;;;;70.00;27.97;;;-3.90;99.90;;;;;;4883060;29;20190;-83
2021/12/23 03:52:31;;;;;;;56.47;25.37;;;;;;;;;;4882778;29;20259;-84
2021/12/23 03:54:57;;;;;;;57.60;26.13;;;;;;;;;;4883584;29;20247;-82
2021/12/23 03:57:23;;;;;;;55.77;24.63;;;;;;;;;;4892828;29;20185;-83
2021/12/23 03:59:49;;;;;;;61.90;26.13;;;;;;;;;;4904069;29;20274;-84
2021/12/23 04:02:15;;;;;;;59.00;25.50;;;;;;;;;;4903829;29;20174;-83
2021/12/23 04:04:41;;;;;;;70.67;26.23;;;;;;;;;;4904470;29;20269;-82
2021/12/23 04:07:07;;;;;;;52.87;24.67;;;;;;;;;;4904014;29;20166;-87
2021/12/23 04:09:33;;;;;;;58.07;24.30;;;;;;;;;;4898087;29;20209;-82
2021/12/23 04:11:59;;;;;;;57.67;25.73;;;;;;;;;;4886413;29;20186;-86
2021/12/23 04:14:25;;;;;;;58.20;26.27;;;;;;;;;;4871978;29;20204;-83
2021/12/23 04:16:51;;;;;;;59.87;25.20;;;;;;;;;;4900950;29;20221;-90
2021/12/23 04:19:18;;;;;;;81.20;36.90;;;;;;;;;;4903415;29;20189;-88
2021/12/23 04:21:44;;;;;;;63.77;29.97;;;;;;;;;;4903599;29;20215;-82
2021/12/23 04:24:10;;;;;;;53.80;25.20;;;-4.10;99.90;;;;;;4903729;29;20172;-87
2021/12/23 04:26:37;;;;;;;54.83;25.93;;;-4.10;99.90;;;;;;4890150;29;20194;-83
2021/12/23 04:29:04;;;;;;;57.60;26.87;;;-4.10;99.90;;;;;;4886894;29;20197;-84
2021/12/23 04:31:30;;;;;;;53.90;23.57;;;;;;;;;;4887414;29;20270;-82
2021/12/23 04:33:56;;;;;;;55.40;24.60;;;;;;;;;;4887126;29;20230;-81
2021/12/23 04:36:27;;;;;;;65.07;25.97;;;-4.10;99.90;;;;;;4885279;29;20205;-82
2021/12/23 04:38:53;;;;;;;65.97;27.70;;;;;;;;;;4885556;29;20334;-83
2021/12/23 04:41:19;;;;;;;152.87;50.33;;;;;;;;;;4884626;29;20711;-83
2021/12/23 04:43:45;;;;;;;88.63;34.73;;;;;;;;;;4885591;29;20212;-82
2021/12/23 04:46:11;;;;;;;92.97;37.60;;;;;;;;;;4868498;29;20690;-81
2021/12/23 04:48:38;;;;;;;60.43;23.90;;;;;;;;;;4869008;29;20197;-82
2021/12/23 04:51:04;;;;;;;78.43;30.03;;;;;;;;;;4885329;29;20193;-84
2021/12/23 04:53:30;;;;;;;80.90;31.93;;;;;;;;;;4885777;29;20226;-81
2021/12/23 04:55:57;;;;;;;97.73;34.33;;;;;;;;;;4883812;29;20664;-81
2021/12/23 04:58:23;;;;;;;95.30;33.53;;;;;;;;;;4885118;29;20186;-81
2021/12/23 05:00:50;;;;;;;131.80;44.17;;;-4.00;99.90;;;;;;4884780;29;20196;-81
2021/12/23 05:03:18;;;;;;;176.73;54.33;;;-4.00;99.90;;;;;;4880763;29;20223;-83
2021/12/23 05:05:45;;;;;;;187.90;59.00;;;-4.00;99.90;;;;;;4887014;29;20206;-82
2021/12/23 05:08:11;;;;;;;198.33;58.13;;;;;;;;;;4879946;29;20210;-83
2021/12/23 05:10:37;;;;;;;127.23;45.57;;;;;;;;;;4858642;29;20229;-83
2021/12/23 05:13:03;;;;;;;143.13;47.43;;;;;;;;;;4881598;29;20202;-82
2021/12/23 05:15:29;;;;;;;101.17;40.57;;;-4.10;99.90;;;;;;4878360;29;20197;-83
2021/12/23 05:17:55;;;;;;;112.53;41.83;;;;;;;;;;4881957;29;20206;-83
2021/12/23 05:20:22;;;;;;;81.57;37.83;;;;;;;;;;4884112;29;20191;-82
2021/12/23 05:22:48;;;;;;;131.07;43.07;;;;;;;;;;4883102;29;20204;-85
2021/12/23 05:25:14;;;;;;;154.43;51.27;;;;;;;;;;4881829;29;20329;-84
2021/12/23 05:27:41;;;;;;;90.53;37.57;;;;;;;;;;4880221;29;20194;-83
2021/12/23 05:30:10;;;;;;;84.77;38.70;;;-4.00;99.90;;;;;;4879546;29;20640;-87
2021/12/23 05:32:36;;;;;;;142.53;56.50;;;-4.00;99.90;;;;;;4873548;29;20178;-83
2021/12/23 05:35:03;;;;;;;69.90;31.77;;;;;;;;;;4884117;29;20212;-84
2021/12/23 05:37:29;;;;;;;56.87;27.83;;;;;;;;;;4870494;29;20285;-84
2021/12/23 05:39:55;;;;;;;59.40;26.90;;;;;;;;;;4884627;29;20742;-84
2021/12/23 05:42:21;;;;;;;73.97;30.50;;;;;;;;;;4881385;29;20215;-84
2021/12/23 05:44:47;;;;;;;62.93;27.77;;;;;;;;;;4882549;29;20277;-83
2021/12/23 05:47:13;;;;;;;107.10;37.17;;;;;;;;;;4869908;29;20195;-81
2021/12/23 05:49:39;;;;;;;113.10;42.57;;;;;;;;;;4880544;29;20193;-81
2021/12/23 05:52:05;;;;;;;181.13;60.63;;;-4.10;99.90;;;;;;4881661;29;20197;-83
2021/12/23 05:54:31;;;;;;;85.23;38.53;;;;;;;;;;4881158;29;20243;-83
2021/12/23 05:57:01;;;;;;;62.87;26.43;;;;;;;;;;4873735;29;20195;-82
2021/12/23 05:59:34;;;;;;;79.33;34.10;;;-4.10;99.90;;;;;;4864473;29;20183;-82
2021/12/23 06:02:01;;;;;;;68.77;33.07;;;;;;;;;;4864427;29;20222;-82
2021/12/23 06:04:27;;;;;;;55.50;24.83;;;;;;;;;;4862866;29;20262;-84
2021/12/23 06:06:53;;;;;;;56.23;26.53;;;;;;;;;;4866751;29;20198;-83
2021/12/23 06:09:19;;;;;;;66.33;29.40;;;;;;;;;;4853859;29;20192;-85
2021/12/23 06:11:45;;;;;;;193.23;64.80;;;;;;;;;;4868054;29;20190;-85
2021/12/23 06:14:11;;;;;;;211.73;76.70;;;;;;;;;;4847809;29;20670;-89
2021/12/23 06:16:37;;;;;;;216.07;77.17;;;;;;;;;;4862847;29;20196;-87
2021/12/23 06:19:03;;;;;;;120.03;45.77;;;;;;;;;;4848121;29;20636;-87
2021/12/23 06:21:31;;;;;;;116.10;49.57;;;;;;;;;;4862962;29;20273;-84
2021/12/23 06:23:58;;;;;;;101.50;39.53;;;;;;;;;;4865343;29;20185;-85
2021/12/23 06:26:24;;;;;;;156.63;55.73;;;;;;;;;;4862947;29;20294;-84
2021/12/23 06:28:50;;;;;;;127.00;49.13;;;;;;;;;;4863820;29;20240;-83
2021/12/23 06:31:16;;;;;;;146.97;57.30;;;;;;;;;;4871322;29;20199;-85
2021/12/23 06:33:42;;;;;;;81.47;34.47;;;;;;;;;;4881134;29;20647;-85
2021/12/23 06:36:08;;;;;;;150.93;63.97;;;;;;;;;;4880942;29;20215;-85
2021/12/23 06:38:35;;;;;;;124.40;56.20;;;;;;;;;;4882205;29;20218;-85
2021/12/23 06:41:01;;;;;;;132.07;52.30;;;;;;;;;;4880934;29;20236;-85
2021/12/23 06:43:27;;;;;;;106.60;48.20;;;;;;;;;;4879861;29;20234;-84
2021/12/23 06:45:53;;;;;;;95.30;39.43;;;;;;;;;;4881351;29;20618;-83
2021/12/23 06:48:19;;;;;;;91.43;41.93;;;;;;;;;;4880853;29;20198;-83
2021/12/23 06:50:45;;;;;;;93.50;38.33;;;;;;;;;;4882027;29;20186;-83
2021/12/23 06:53:13;;;;;;;101.73;43.77;;;-4.20;99.90;;;;;;4881641;29;20190;-84
2021/12/23 06:55:40;;;;;;;98.30;43.43;;;-4.00;99.90;;;;;;4881674;29;20289;-83
2021/12/23 06:58:07;;;;;;;80.07;34.97;;;;;;;;;;4881705;29;20175;-86
2021/12/23 07:00:33;;;;;;;94.20;42.73;;;;;;;;;;4881454;29;20554;-83
2021/12/23 07:02:59;;;;;;;80.07;34.23;;;;;;;;;;4881693;29;20174;-83
2021/12/23 07:05:25;;;;;;;86.83;36.07;;;;;;;;;;4880103;29;20668;-82
2021/12/23 07:08:04;;;;;;;86.57;39.97;;;;;;;;;;4881550;29;20202;-83
2021/12/23 07:10:32;;;;;;;85.20;34.57;;;-4.20;99.90;;;;;;4881948;29;20604;-84
2021/12/23 07:12:58;;;;;;;74.43;36.80;;;;;;;;;;4881023;29;20239;-83
2021/12/23 07:15:25;;;;;;;72.17;31.80;;;-4.30;99.90;;;;;;4881341;29;20231;-82
2021/12/23 07:17:55;;;;;;;68.77;30.63;;;-4.20;99.90;;;;;;4880150;29;20186;-83
2021/12/23 07:20:22;;;;;;;67.17;30.53;;;-4.20;99.90;;;;;;4880213;29;20230;-85
2021/12/23 07:22:48;;;;;;;77.40;33.37;;;;;;;;;;4880013;29;20656;-84
2021/12/23 07:25:15;;;;;;;70.30;32.27;;;-4.10;99.90;;;;;;4864277;29;20245;-83
2021/12/23 07:27:41;;;;;;;81.00;30.37;;;;;;;;;;4881163;29;20191;-83
2021/12/23 07:30:09;;;;;;;52.23;23.17;;;-4.10;99.90;;;;;;4880776;29;20185;-83
2021/12/23 07:32:35;;;;;;;66.03;30.13;;;;;;;;;;4881300;29;20213;-83
2021/12/23 07:35:01;;;;;;;73.47;28.63;;;;;;;;;;4879800;29;20276;-83
2021/12/23 07:37:27;;;;;;;60.60;28.27;;;;;;;;;;4881154;29;20210;-84
2021/12/23 07:39:55;;;;;;;64.30;28.07;;;;;;;;;;4883097;29;20641;-83
2021/12/23 07:42:21;;;;;;;57.60;23.27;;;;;;;;;;4881033;29;20209;-86
2021/12/23 07:44:47;;;;;;;60.53;26.37;;;;;;;;;;4880326;29;20308;-83
2021/12/23 07:50:54;;;;;;;60.27;27.27;;;-3.90;99.90;;;;;;4880483;29;20199;-83
2021/12/23 07:53:20;;;;;;;56.33;26.97;;;;;;;;;;4863822;29;20338;-83
2021/12/23 07:55:46;;;;;;;61.93;24.63;;;;;;;;;;4879187;29;20236;-83
2021/12/23 07:58:12;;;;;;;55.57;25.87;;;;;;;;;;4880719;29;20185;-83
2021/12/23 08:00:38;;;;;;;60.77;26.93;;;;;;;;;;4879350;29;20571;-83
2021/12/23 08:03:04;;;;;;;57.00;25.90;;;;;;;;;;4863822;29;20194;-83
2021/12/23 08:05:34;;;;;;;58.60;27.00;;;;;;;;;;4879475;29;20302;-83
2021/12/23 08:08:01;;;;;;;63.17;27.33;;;-3.90;99.90;;;;;;4878998;29;20707;-82
2021/12/23 08:10:27;;;;;;;71.60;31.27;;;;;;;;;;4879095;29;20217;-83
2021/12/23 08:12:53;;;;;;;62.93;26.43;;;;;;;;;;4883766;29;20184;-84
2021/12/23 08:15:19;;;;;;;65.43;28.53;;;;;;;;;;4883966;29;20186;-82
2021/12/23 08:17:45;;;;;;;56.27;24.17;;;;;;;;;;4883672;29;20206;-83
2021/12/23 08:20:13;;;;;;;69.87;31.70;;;-3.90;99.90;;;;;;4885560;29;20186;-82
2021/12/23 08:22:39;;;;;;;63.00;28.27;;;;;;;;;;4886115;29;20269;-83
2021/12/23 08:25:05;;;;;;;62.87;26.97;;;;;;;;;;4888405;29;20296;-82
2021/12/23 08:27:33;;;;;;;50.60;21.20;;;;;;;;;;4882650;29;20690;-83
2021/12/23 08:29:59;;;;;;;40.90;21.30;;;-3.80;99.90;;;;;;4880254;29;20226;-82
2021/12/23 08:32:25;;;;;;;43.20;21.20;;;;;;;;;;4879061;29;20191;-83
2021/12/23 08:34:51;;;;;;;40.40;18.73;;;;;;;;;;4880022;29;20192;-83
2021/12/23 08:37:17;;;;;;;40.07;18.80;;;;;;;;;;4879135;29;20538;-83
2021/12/23 08:39:44;;;;;;;43.53;19.20;;;;;;;;;;4879770;29;20260;-82
2021/12/23 08:42:10;;;;;;;38.53;17.37;;;-3.80;99.90;;;;;;4879348;29;20241;-82
2021/12/23 08:44:36;;;;;;;36.57;16.90;;;;;;;;;;4879875;29;20213;-82
2021/12/23 08:47:02;;;;;;;37.53;18.70;;;-3.80;99.90;;;;;;4878952;29;20277;-83
2021/12/23 08:49:28;;;;;;;48.90;19.90;;;;;;;;;;4863234;29;20205;-90
2021/12/23 08:51:54;;;;;;;41.63;17.73;;;;;;;;;;4864121;29;20222;-82
2021/12/23 08:54:21;;;;;;;48.40;19.97;;;-3.60;99.90;;;;;;4883504;29;20248;-82
2021/12/23 08:57:07;;;;;;;42.23;19.87;;;-3.70;99.90;;;;;;4892904;29;20190;-82
2021/12/23 08:59:33;;;;;;;48.20;19.23;;;;;;;;;;4893714;29;20183;-84
2021/12/23 09:01:59;;;;;;;38.93;18.30;;;;;;;;;;4881146;29;20214;-81
2021/12/23 09:04:25;;;;;;;66.50;23.90;;;;;;;;;;4878572;29;20214;-83
2021/12/23 09:06:51;;;;;;;48.40;21.47;;;;;;;;;;4878733;29;20222;-82
2021/12/23 09:09:17;;;;;;;42.97;19.90;;;-3.60;99.90;;;;;;4883013;29;20230;-82
2021/12/23 09:11:43;;;;;;;43.00;18.67;;;;;;;;;;4882062;29;20588;-82
2021/12/23 09:14:09;;;;;;;44.23;18.97;;;;;;;;;;4883935;29;20180;-83
2021/12/23 09:16:36;;;;;;;39.80;19.90;;;;;;;;;;4864207;29;20223;-83
2021/12/23 09:19:02;;;;;;;45.57;20.07;;;-3.50;99.90;;;;;;4873870;29;20194;-83
2021/12/23 09:21:28;;;;;;;66.60;25.33;;;;;;;;;;4882535;29;20188;-83
2021/12/23 09:23:54;;;;;;;44.37;19.30;;;;;;;;;;4881872;29;20187;-83
2021/12/23 09:26:21;;;;;;;36.47;18.30;;;;;;;;;;4881736;29;20363;-82
2021/12/23 09:34:01;;;;;;;36.97;16.87;;;;;;;;;;4882102;29;20553;-81
2021/12/23 09:36:27;;;;;;;44.00;17.73;;;;;;;;;;4881493;29;20561;-82
2021/12/23 09:38:53;;;;;;;60.47;21.93;;;;;;;;;;4881400;29;20362;-83
2021/12/23 09:41:21;;;;;;;51.70;22.70;;;-3.50;99.90;;;;;;4883669;29;20185;-83
2021/12/23 09:43:47;;;;;;;40.30;19.07;;;;;;;;;;4883457;29;20195;-82
2021/12/23 09:46:16;;;;;;;44.40;18.90;;;-3.50;99.90;;;;;;4881656;29;20224;-83
2021/12/23 09:48:45;;;;;;;45.70;18.73;;;-3.50;99.90;;;;;;4881520;29;20591;-82
2021/12/23 09:51:13;;;;;;;48.03;19.57;;;-3.50;99.90;;;;;;4875671;29;20573;-83
2021/12/23 09:53:43;;;;;;;46.67;18.17;;;-3.50;99.90;;;;;;4882739;29;20226;-82
2021/12/23 09:56:09;;;;;;;47.03;19.40;;;;;;;;;;4883066;29;20199;-82
2021/12/23 09:58:35;;;;;;;40.73;18.90;;;;;;;;;;4881134;29;20206;-83
2021/12/23 10:01:02;;;;;;;49.97;20.60;;;;;;;;;;4882798;29;20198;-82
2021/12/23 10:03:29;;;;;;;58.47;22.33;;;-3.30;99.90;;;;;;4882188;29;20206;-84
2021/12/23 10:05:57;;;;;;;51.93;22.17;;;;;;;;;;4847051;29;20242;-85
2021/12/23 10:08:24;;;;;;;52.80;21.27;;;-3.20;99.90;;;;;;4874782;29;20197;-81
2021/12/23 10:10:59;;;;;;;46.63;20.17;;;;;;;;;;4872126;29;20268;-81
2021/12/23 10:38:12;;;;;;;37.20;16.67;;;-3.20;99.90;;;;;;4882987;29;20223;-83
2021/12/23 10:40:42;;;;;;;40.77;18.83;;;-3.20;99.90;;;;;;4882281;29;20183;-84
2021/12/23 10:43:11;;;;;;;43.13;19.10;;;;;;;;;;4880602;29;20582;-82
2021/12/23 10:45:52;;;;;;;54.10;21.40;;;-3.00;99.90;;;;;;4881919;29;20264;-82
2021/12/23 10:48:18;;;;;;;45.73;21.63;;;;;;;;;;4880843;29;20267;-81
2021/12/23 10:50:49;;;;;;;51.67;22.20;;;;;;;;;;4883027;29;20187;-82
2021/12/23 10:53:47;;;;;;;47.43;22.40;;;-2.90;99.90;;;;;;4881931;29;20262;-82
2021/12/23 10:59:09;;;;;;;39.37;19.37;;;;;;;;;;4881672;29;20246;-82
2021/12/23 11:01:56;;;;;;;46.50;21.03;;;-3.00;99.90;;;;;;4881641;29;20184;-82
2021/12/23 11:04:22;;;;;;;72.93;28.10;;;;;;;;;;4873145;29;20294;-83
2021/12/23 11:06:56;;;;;;;55.90;24.03;;;;;;;;;;4879957;29;20192;-82
2021/12/23 11:37:04;;;;;;;47.63;20.43;;;;;;;;;;4904735;29;20235;-82
2021/12/23 11:42:16;;;;;;;40.50;16.80;;;;;;;;;;4904447;29;20194;-83
2021/12/23 11:44:42;;;;;;;48.80;20.87;;;;;;;;;;4893361;29;20247;-83
2021/12/23 11:47:12;;;;;;;48.80;21.20;;;;;;;;;;4889471;29;20185;-83
2021/12/23 11:49:41;;;;;;;62.97;25.47;;;-2.50;99.90;;;;;;4891276;29;20197;-90
2021/12/23 11:52:07;;;;;;;79.03;27.90;;;;;;;;;;4872473;29;20207;-90
2021/12/23 11:54:33;;;;;;;76.97;28.93;;;;;;;;;;4886832;29;20240;-89
2021/12/23 11:57:08;;;;;;;54.53;24.80;;;-2.40;99.90;;;;;;4902084;29;20207;-84
2021/12/23 11:59:37;;;;;;;57.53;22.87;;;-2.30;99.90;;;;;;4893485;29;20190;-83
2021/12/23 12:02:18;;;;;;;55.53;21.80;;;-2.30;99.90;;;;;;4881212;29;20190;-83
2021/12/23 12:04:45;;;;;;;48.27;19.90;;;-2.40;99.90;;;;;;4880333;29;20201;-83
2021/12/23 12:07:20;;;;;;;48.20;19.80;;;-2.40;99.90;;;;;;4880304;29;20182;-83
2021/12/23 12:10:00;;;;;;;43.43;18.43;;;-2.50;99.90;;;;;;4878842;29;20222;-82
2021/12/23 12:12:26;;;;;;;39.30;18.40;;;;;;;;;;4878620;29;20191;-83
2021/12/23 12:14:55;;;;;;;58.60;24.30;;;;;;;;;;4878943;29;20192;-82
2021/12/23 12:17:21;;;;;;;64.13;22.73;;;;;;;;;;4878817;29;20197;-82
2021/12/23 12:20:00;;;;;;;41.27;18.57;;;-2.30;99.90;;;;;;4878399;29;20597;-81
2021/12/23 12:22:56;;;;;;;36.57;16.47;;;-2.40;99.90;;;;;;4878428;29;20188;-83
2021/12/23 12:25:25;;;;;;;51.03;20.23;;;-2.60;99.90;;;;;;4878707;29;20212;-85
2021/12/23 12:27:51;;;;;;;54.90;22.97;;;-2.50;99.90;;;;;;4880110;29;20240;-84
2021/12/23 12:30:21;;;;;;;52.50;22.20;;;;;;;;;;4878633;29;20276;-85
2021/12/23 12:32:48;;;;;;;46.30;20.53;;;;;;;;;;4879808;29;20242;-86
2021/12/23 12:35:20;;;;;;;37.57;17.67;;;-2.70;99.90;;;;;;4878723;29;20548;-85
2021/12/23 12:37:50;;;;;;;29.03;14.07;;;-2.40;99.90;;;;;;4863105;29;20264;-85
2021/12/23 12:40:17;;;;;;;48.27;18.37;;;;;;;;;;4880244;29;20652;-86
2021/12/23 12:42:47;;;;;;;54.60;21.37;;;;;;;;;;4877684;29;20230;-86
2021/12/23 12:45:24;;;;;;;51.93;23.23;;;-2.40;99.90;;;;;;4878543;29;20691;-86
2021/12/23 12:47:56;;;;;;;43.97;18.27;;;;;;;;;;4879777;29;20180;-87
2021/12/23 12:50:27;;;;;;;67.50;26.00;;;-2.30;99.90;;;;;;4878326;29;20191;-86
2021/12/23 12:52:55;;;;;;;49.87;22.60;;;;;;;;;;4879805;29;20230;-86
2021/12/23 12:55:26;;;;;;;49.63;21.33;;;-2.40;99.90;;;;;;4878568;29;20347;-85
2021/12/23 12:57:54;;;;;;;42.87;18.23;;;-2.50;99.90;;;;;;4878850;29;20280;-86
2021/12/23 13:00:35;;;;;;;44.00;20.30;;;-2.80;99.90;;;;;;4879682;29;20639;-84
2021/12/23 13:03:19;;;;;;;42.07;18.77;;;-2.80;99.90;;;;;;4879813;29;20226;-83
2021/12/23 13:05:50;;;;;;;35.60;16.00;;;-2.50;99.90;;;;;;4879659;29;20202;-83
2021/12/23 13:08:25;;;;;;;47.73;20.10;;;-2.70;99.90;;;;;;4879601;29;20198;-83
2021/12/23 13:10:51;;;;;;;40.97;21.20;;;;;;;;;;4879163;29;20185;-85
2021/12/23 13:13:40;;;;;;;43.80;20.30;;;-2.50;99.90;;;;;;4879704;29;20193;-83
2021/12/23 13:16:23;;;;;;;47.60;21.50;;;-2.40;99.90;;;;;;4878276;29;20706;-83
2021/12/23 13:19:32;;;;;;;47.43;20.77;;;-2.50;99.90;;;;;;4878286;29;20211;-83
2021/12/23 13:21:59;;;;;;;55.50;22.33;;;-2.50;99.90;;;;;;4886285;29;20201;-85
2021/12/23 13:24:28;;;;;;;52.90;20.80;;;-2.50;99.90;;;;;;4879752;29;20188;-85
2021/12/23 13:26:55;;;;;;;51.80;19.63;;;-2.50;99.90;;;;;;4879599;29;20248;-85
2021/12/23 13:29:26;;;;;;;42.50;19.30;;;-2.50;99.90;;;;;;4878244;29;20618;-84
2021/12/23 13:31:52;;;;;;;43.23;19.47;;;;;;;;;;4878201;29;20225;-84
2021/12/23 13:34:21;;;;;;;51.47;25.67;;;-2.50;99.90;;;;;;4878085;29;20202;-84
2021/12/23 13:36:59;;;;;;;51.90;23.37;;;-2.40;99.90;;;;;;4880217;29;20270;-84
2021/12/23 13:39:27;;;;;;;53.63;23.27;;;-2.50;99.90;;;;;;4879327;29;20195;-84
2021/12/23 13:41:56;;;;;;;49.40;21.00;;;-2.50;99.90;;;;;;4880633;29;20183;-85
2021/12/23 13:44:31;;;;;;;46.43;20.43;;;-2.40;99.90;;;;;;4879873;29;20268;-85
2021/12/23 13:47:07;;;;;;;47.00;21.27;;;-2.60;99.90;;;;;;4878124;29;20656;-84
2021/12/23 13:49:50;;;;;;;102.73;42.57;;;-2.40;99.90;;;;;;4878316;29;20192;-84
2021/12/23 13:52:23;;;;;;;114.00;47.70;;;-2.60;99.90;;;;;;4878289;29;20181;-84
2021/12/23 13:54:53;;;;;;;67.87;31.40;;;-2.60;99.90;;;;;;4882453;29;20239;-85
2021/12/23 13:57:21;;;;;;;85.70;43.27;;;-2.60;99.90;;;;;;4881625;29;20186;-84
2021/12/23 13:59:48;;;;;;;66.93;32.47;;;-2.60;99.90;;;;;;4881364;29;20714;-85
2021/12/23 14:02:19;;;;;;;40.90;20.03;;;-2.60;99.90;;;;;;4882675;29;20322;-85
2021/12/23 14:04:49;;;;;;;56.97;27.33;;;-2.70;99.90;;;;;;4866113;29;20210;-86
2021/12/23 14:07:15;;;;;;;49.93;22.97;;;;;;;;;;4882773;29;20186;-85
2021/12/23 14:09:44;;;;;;;79.77;41.27;;;-2.80;99.90;;;;;;4882919;29;20189;-85
2021/12/23 14:12:13;;;;;;;53.97;26.27;;;-2.70;99.90;;;;;;4881442;29;20190;-85
2021/12/23 14:14:59;;;;;;;55.40;26.40;;;-2.70;99.90;;;;;;4881507;29;20194;-86
2021/12/23 14:17:38;;;;;;;54.00;26.77;;;-2.70;99.90;;;;;;4883175;29;20200;-90
2021/12/23 14:23:13;;;;;;;52.50;26.17;;;-2.70;99.90;;;;;;4882533;29;20185;-84
2021/12/23 14:25:50;;;;;;;54.73;28.37;;;-2.60;99.90;;;;;;4881119;29;20206;-84
2021/12/23 14:28:24;;;;;;;60.30;23.67;;;-2.70;99.90;;;;;;4882520;29;20185;-86
2021/12/23 14:30:56;;;;;;;53.23;25.97;;;-2.60;99.90;;;;;;4882386;29;20670;-84
2021/12/23 14:33:26;;;;;;;49.30;24.23;;;-2.70;99.90;;;;;;4882295;29;20181;-83
2021/12/23 14:36:07;;;;;;;53.93;24.80;;;-2.70;99.90;;;;;;4881776;29;20186;-84
2021/12/23 14:38:41;;;;;;;58.33;24.47;;;-2.50;99.90;;;;;;4881853;29;20178;-84
2021/12/23 14:41:18;;;;;;;67.93;30.30;;;-2.70;99.90;;;;;;4880535;29;20193;-84
2021/12/23 14:43:55;;;;;;;65.03;26.53;;;-2.90;99.90;;;;;;4881863;29;20186;-84
2021/12/23 14:46:38;;;;;;;58.97;26.47;;;-2.70;99.90;;;;;;4882296;29;20211;-83
2021/12/23 14:51:35;;;;;;;87.37;34.43;;;-2.70;99.90;;;;;;4880352;29;20282;-85
2021/12/23 14:54:15;;;;;;;67.13;29.27;;;-2.60;99.90;;;;;;4879159;29;20236;-85